Ulan Bator, Mongolia
Current Conditions -  °F | °C
As of 3:00 AM on Monday 22 Dec 2014 (Local Time) from ZMUB Reporting Station
Clear Clear  
Wind Chill: -9°   Ceiling: Unl
Heat Index: -9°   Visibility: 4mi
Dew Point: -15°   Wind: 2mph
Humidity: 77%   Direction: NA
Pressure: 30.03"   Gusts: NA
Location:  47.92°N, 106.91°E
Report Text: ZMUB 211900Z VRB01MPS 6000NW NSC M23/M26 Q1017 NOSIG RMK QFE655.2 78 NT
Loading
Personal Weather Stations






























Interactive Weather Map New forecast layout! Learn more

10-Day Weather Forecast

Advertisements
Track Severe Weather on mobile